Ana Sayfa
METAR-TAF:

METAR-TAF

Havaalanları :

Chevak, Alaska, Amerika Birleşik Devletleri

Enlem: 61-32-27N, Boylam: 165-36-03W, yükseklik: 23 m

Güncel hava durumu gözlemi

Rapor saat 16:56 UTC de 13 dakika önce yapıldı.
Rüzgar güney/güneydoğudan 12 kt
Sıcaklık -6°C
Nem 100%
Basınç 1022 hPa
Görüş mesafesi: 8.0 km
500 ft yükseklikte parçalı çok bulutlu
3400 ft yükseklikte çok bulutlu
hafif kar, Pus

METAR: PAVA 021656Z AUTO 15012KT 5SM -SN BR BKN005 OVC034 M06/M06 A3017 RMK AO2 SLP221 P0000 T10561061 FZRANO

Saat: 09:09 (17:09 UTC)


TAF: eksik

4.000'den fazla havaalanı için hava durumu gözlemleri ve tahminleri (METAR ve TAF raporları).

Kullanılabilir istasyonlar harita üzerinde sarı ve kırmızı noktalarla gösterilir.

İstasyonun adını görmek için fareyi noktanın üzerinde gezdirin.

Sonrasında hava gözlem ve tahminlerini görmek için tıklayın.

Haritayı değiştirmek için: yaklaştırmak için siyah artı işaretli yeşil düğmeye ve uzaklaştırmak için de eksi işaretli düğmeye hızla tıklayın; bitişik haritalar için yeşil okları kullanın.


METAR-TAF: